Time;durP1;ratioP1;P1;durP2;ratioP2;P2;SDS_P1;SDS_P2;PMS_P1;PMS_P2;Temp;Humidity;BMP_temperature;BMP_pressure;BME280_temperature;BME280_humidity;BME280_pressure;Samples;Min_cycle;Max_cycle;Signal;HPM_P1;HPM_P2
2022/03/02 00:01:52;;;;;;;41.47;20.45;;;;;;;-0.95;65.53;95503.50;5076590;28;20025;-82
2022/03/02 00:04:18;;;;;;;39.92;20.00;;;;;;;0.05;66.41;95700.91;5076295;28;20063;-82
2022/03/02 00:06:43;;;;;;;46.35;20.98;;;;;;;-0.85;67.10;95548.22;5074571;28;20430;-82
2022/03/02 00:09:09;;;;;;;40.00;19.90;;;;;;;-0.61;66.92;95601.63;5075770;28;20036;-83
2022/03/02 00:11:34;;;;;;;39.58;19.25;;;;;;;-1.71;66.23;95446.28;5075687;28;20037;-83
2022/03/02 00:14:00;;;;;;;28.63;14.27;;;;;;;-1.09;63.91;95514.84;5058015;28;20028;-83
2022/03/02 00:16:39;;;;;;;29.88;14.55;;;;;;;-1.70;63.72;95441.88;4024067;28;10001911;-83
2022/03/02 00:19:05;;;;;;;27.17;14.52;;;;;;;-0.30;65.13;95681.91;1745015;28;10001987;-83
2022/03/02 00:21:31;;;;;;;28.98;14.07;;;;;;;-1.20;64.30;95527.41;5075656;28;20077;-83
2022/03/02 00:23:57;;;;;;;27.67;13.73;;;;;;;-1.38;63.44;95521.09;5074976;28;20115;-83
2022/03/02 00:26:23;;;;;;;23.27;12.30;;;;;;;-0.86;64.74;95620.31;5057712;28;20029;-83
2022/03/02 00:28:48;;;;;;;27.05;13.40;;;;;;;-0.95;63.81;95599.81;5057119;28;20036;-83
2022/03/02 00:31:14;;;;;;;23.90;12.88;;;;;;;-1.51;64.45;95515.78;5076626;28;20036;-81
2022/03/02 00:33:39;;;;;;;30.83;13.77;;;;;;;-1.02;64.40;95557.34;5076498;28;20072;-81
2022/03/02 00:36:05;;;;;;;24.80;14.00;;;;;;;-1.17;64.91;95560.06;5075268;28;20036;-82
2022/03/02 00:38:31;;;;;;;27.85;13.00;;;;;;;-0.62;65.69;95637.28;5076838;28;20032;-82
2022/03/02 00:40:57;;;;;;;32.53;13.98;;;;;;;-1.10;64.57;95523.66;5075330;28;20128;-82
2022/03/02 00:43:23;;;;;;;28.13;13.75;;;;;;;-1.07;65.93;95547.50;5076308;28;20032;-81
2022/03/02 00:45:49;;;;;;;27.33;13.80;;;;;;;-1.97;65.62;95412.28;5077148;28;20028;-82
2022/03/02 00:48:15;;;;;;;25.10;13.05;;;;;;;-1.60;64.35;95473.53;5076791;28;20041;-81
2022/03/02 00:50:41;;;;;;;23.50;12.15;;;;;;;-1.66;64.74;95462.09;5076891;28;20050;-82
2022/03/02 00:53:07;;;;;;;23.63;12.40;;;;;;;-1.08;64.59;95500.84;5075560;28;20093;-82
2022/03/02 00:55:34;;;;;;;27.63;14.25;;;;;;;-0.95;65.21;95504.31;5075416;28;20482;-82
2022/03/02 00:58:00;;;;;;;35.20;15.70;;;;;;;-0.71;65.47;95551.69;5075253;28;20032;-82
2022/03/02 01:00:26;;;;;;;26.67;14.43;;;;;;;-0.24;65.81;95595.13;5076468;28;20396;-82
2022/03/02 01:02:52;;;;;;;25.35;13.40;;;;;;;-1.07;65.88;95453.00;5076290;28;20034;-82
2022/03/02 01:05:17;;;;;;;26.58;12.10;;;;;;;-0.60;64.91;95538.88;5057390;28;20375;-82
2022/03/02 01:07:43;;;;;;;27.45;14.05;;;;;;;-1.14;64.60;95426.16;5075570;28;20064;-82
2022/03/02 01:10:09;;;;;;;28.95;14.55;;;;;;;0.07;64.97;95615.47;5058106;28;20494;-82
2022/03/02 01:12:35;;;;;;;28.42;15.43;;;;;;;-0.64;63.27;95563.72;5075040;28;20020;-82
2022/03/02 01:15:00;;;;;;;29.58;15.52;;;;;;;-1.18;63.59;95485.56;5074971;28;20059;-82
2022/03/02 01:17:26;;;;;;;35.25;15.25;;;;;;;-0.78;64.92;95611.53;5058375;28;20457;-81
2022/03/02 01:19:52;;;;;;;32.60;15.77;;;;;;;-1.59;65.72;95520.16;5058101;28;20259;-82
2022/03/02 01:22:18;;;;;;;32.25;15.15;;;;;;;-1.46;65.60;95555.06;5074943;28;20044;-82
2022/03/02 01:24:44;;;;;;;25.38;14.48;;;;;;;-1.52;65.65;95533.19;5056021;28;20376;-82
2022/03/02 01:27:09;;;;;;;28.77;14.32;;;;;;;-2.08;65.54;95452.63;5074296;28;20036;-82
2022/03/02 01:29:36;;;;;;;31.27;14.48;;;;;;;-1.40;66.10;95523.88;5073755;28;20040;-82
2022/03/02 01:32:05;;;;;;;28.48;14.48;;;;;;;-1.78;66.24;95455.03;5057897;28;20090;-82
2022/03/02 01:34:31;;;;;;;30.65;14.85;;;;;;;-2.13;67.13;95407.38;5075515;28;20039;-82
2022/03/02 01:36:56;;;;;;;28.92;15.27;;;;;;;-1.36;67.33;95493.88;5074078;28;20479;-82
2022/03/02 01:39:22;;;;;;;30.90;15.65;;;;;;;-1.38;65.49;95482.88;5075911;28;20106;-82
2022/03/02 01:41:47;;;;;;;29.02;14.90;;;;;;;-2.54;65.74;95317.19;5075477;28;20498;-82
2022/03/02 01:44:13;;;;;;;30.08;13.85;;;;;;;-1.87;64.47;95461.34;5058295;28;20123;-83
2022/03/02 01:46:40;;;;;;;31.38;16.17;;;;;;;-1.08;64.96;95592.75;5076076;28;20067;-82
2022/03/02 01:49:05;;;;;;;29.83;15.38;;;;;;;-4.02;65.91;95108.06;5076297;28;20036;-83
2022/03/02 01:51:31;;;;;;;26.98;14.27;;;;;;;-4.32;65.60;95104.78;5074842;28;20089;-83
2022/03/02 01:53:56;;;;;;;29.58;14.20;;;;;;;-1.97;65.27;95461.69;5074580;28;20105;-83
2022/03/02 01:56:22;;;;;;;29.02;15.80;;;;;;;-1.98;66.36;95462.66;5073038;28;20033;-82
2022/03/02 01:58:48;;;;;;;24.65;13.32;;;;;;;-1.91;64.27;95460.94;5074615;28;20028;-82
2022/03/02 02:01:13;;;;;;;24.00;12.90;;;;;;;-1.16;64.29;95600.72;5075280;28;20496;-82
2022/03/02 02:03:39;;;;;;;27.17;13.23;;;;;;;-2.18;65.79;95427.94;5074217;28;20138;-83
2022/03/02 02:06:05;;;;;;;24.27;13.23;;;;;;;-2.23;64.96;95440.69;5073475;28;20048;-83
2022/03/02 02:08:31;;;;;;;23.58;11.10;;;;;;;-1.56;64.97;95500.78;5073788;28;20040;-83
2022/03/02 02:10:59;;;;;;;29.08;13.10;;;;;;;-1.29;64.96;95564.16;5072107;28;20025;-83
2022/03/02 02:13:26;;;;;;;23.88;12.48;;;;;;;-1.28;64.91;95577.00;5073644;28;20060;-83
2022/03/02 02:15:53;;;;;;;16.17;10.90;;;;;;;-1.31;64.35;95566.97;5074221;28;20036;-83
2022/03/02 02:18:19;;;;;;;26.08;12.27;;;;;;;-4.53;64.83;95091.84;5072700;28;20469;-83
2022/03/02 02:20:45;;;;;;;25.63;11.90;;;;;;;-1.96;65.04;95471.09;5074298;28;20040;-83
2022/03/02 02:23:12;;;;;;;23.08;12.48;;;;;;;-1.95;66.26;95428.50;5075023;28;20028;-83
2022/03/02 02:25:38;;;;;;;25.50;12.40;;;;;;;-2.21;65.25;95382.34;5074704;28;20040;-82
2022/03/02 02:28:03;;;;;;;21.75;10.95;;;;;;;-2.01;64.09;95466.47;5074749;28;20055;-82
2022/03/02 02:30:30;;;;;;;34.70;14.30;;;;;;;-1.38;64.39;95557.53;5074610;28;20129;-82
2022/03/02 02:32:56;;;;;;;18.90;11.10;;;;;;;-1.36;64.19;95569.31;5074906;28;20036;-83
2022/03/02 02:35:22;;;;;;;22.65;11.02;;;;;;;-1.21;64.10;95559.63;5074680;28;20028;-82
2022/03/02 02:37:48;;;;;;;35.83;11.43;;;;;;;-1.11;64.16;95567.09;5075017;28;20035;-82
2022/03/02 02:40:19;;;;;;;24.67;12.75;;;;;;;-1.92;65.59;95433.34;5056811;28;20032;-83
2022/03/02 02:42:46;;;;;;;24.67;12.20;;;;;;;-1.59;64.15;95459.53;5075940;28;20024;-82
2022/03/02 02:45:17;;;;;;;21.50;12.38;;;;;;;-0.92;63.38;95563.00;5074591;28;20044;-83
2022/03/02 02:47:56;;;;;;;17.55;10.15;;;;;;;-2.21;63.94;95395.34;3478203;28;10021484;-82
2022/03/02 02:50:27;;;;;;;22.48;11.50;;;;;;;-1.13;64.25;95566.47;2265521;28;10001847;-82
2022/03/02 02:52:54;;;;;;;;;;;;;;;-1.20;64.81;95556.03;5039652;28;20033;-82
2022/03/02 02:55:22;;;;;;;19.95;10.45;;;;;;;-1.99;63.29;95445.50;5056932;28;19931;-82
2022/03/02 02:57:49;;;;;;;22.40;11.75;;;;;;;-1.83;63.25;95463.38;5056992;28;20025;-82
2022/03/02 03:00:19;;;;;;;23.25;12.68;;;;;;;-1.57;64.48;95501.75;5056825;28;20049;-82
2022/03/02 03:02:49;;;;;;;29.10;12.43;;;;;;;-1.72;65.04;95457.66;5038349;28;20029;-82
2022/03/02 03:05:17;;;;;;;33.63;12.80;;;;;;;-2.41;65.20;95358.03;5039168;28;20506;-82
2022/03/02 03:07:44;;;;;;;21.48;11.90;;;;;;;-1.68;64.78;95430.25;5060534;28;20033;-82
2022/03/02 03:10:11;;;;;;;23.33;12.55;;;;;;;-1.29;64.99;95501.72;5060055;28;20033;-82
2022/03/02 03:12:37;;;;;;;25.27;12.55;;;;;;;-1.65;63.42;95434.28;5041831;28;20040;-82
2022/03/02 03:15:05;;;;;;;18.90;10.88;;;;;;;-1.99;64.19;95415.09;5041645;28;20052;-83
2022/03/02 03:17:31;;;;;;;25.23;12.10;;;;;;;-1.78;63.53;95468.03;5042168;28;20399;-82
2022/03/02 03:19:56;;;;;;;23.30;12.35;;;;;;;-1.90;63.50;95453.91;5057820;28;20025;-82
2022/03/02 03:22:22;;;;;;;21.58;11.73;;;;;;;-2.01;63.20;95453.47;5060315;28;20453;-83
2022/03/02 03:24:47;;;;;;;20.63;11.85;;;;;;;-2.24;64.88;95420.91;5041726;28;20071;-83
2022/03/02 03:27:13;;;;;;;31.65;12.23;;;;;;;-3.01;64.39;95299.66;5041690;28;20029;-83
2022/03/02 03:29:38;;;;;;;20.58;11.95;;;;;;;-1.49;65.53;95558.84;5059731;28;20051;-85
2022/03/02 03:32:05;;;;;;;25.83;11.88;;;;;;;-2.21;64.46;95428.34;5059179;28;20028;-83
2022/03/02 03:34:30;;;;;;;23.02;11.80;;;;;;;-1.70;65.09;95520.69;5059374;28;20029;-83
2022/03/02 03:36:56;;;;;;;21.45;10.93;;;;;;;-1.54;65.88;95555.22;5058051;28;20381;-82
2022/03/02 03:39:22;;;;;;;19.13;10.15;;;;;;;-1.54;64.97;95556.00;5059304;28;20083;-82
2022/03/02 03:41:47;;;;;;;19.73;11.23;;;;;;;-1.85;66.39;95506.97;5060111;28;20039;-82
2022/03/02 03:44:12;;;;;;;17.38;10.80;;;;;;;-2.62;65.90;95395.22;5058517;28;20654;-83
2022/03/02 03:46:38;;;;;;;25.48;11.13;;;;;;;-2.24;66.81;95452.06;5041002;28;20067;-82
2022/03/02 03:49:03;;;;;;;20.17;10.02;;;;;;;-1.70;66.69;95554.50;5056873;28;20033;-83
2022/03/02 03:51:29;;;;;;;23.70;11.93;;;;;;;-2.03;67.02;95498.81;5059012;28;20108;-83
2022/03/02 03:53:55;;;;;;;24.33;10.65;;;;;;;-2.38;67.25;95446.78;5059436;28;20029;-82
2022/03/02 03:56:20;;;;;;;18.50;9.52;;;;;;;-2.82;67.42;95395.03;5059246;28;20037;-82
2022/03/02 03:58:46;;;;;;;17.63;9.85;;;;;;;-1.83;68.11;95551.75;5058637;28;20024;-82
2022/03/02 04:01:11;;;;;;;19.50;9.93;;;;;;;-2.48;67.81;95456.66;5057647;28;20483;-82
2022/03/02 04:03:37;;;;;;;20.95;9.98;;;;;;;-1.81;68.35;95552.38;5058569;28;20092;-82
2022/03/02 04:06:03;;;;;;;21.73;10.52;;;;;;;-2.52;68.07;95459.84;5058917;28;20497;-82
2022/03/02 04:08:29;;;;;;;19.58;10.63;;;;;;;-3.57;68.32;95272.75;5041548;28;20037;-82
2022/03/02 04:10:54;;;;;;;21.88;11.25;;;;;;;-2.20;68.75;95489.66;5058249;28;20059;-83
2022/03/02 04:13:20;;;;;;;19.83;10.55;;;;;;;-2.21;69.53;95514.06;5042029;28;20135;-82
2022/03/02 04:15:46;;;;;;;26.77;10.65;;;;;;;-3.86;68.71;95245.16;5060297;28;20426;-82
2022/03/02 04:18:12;;;;;;;21.48;10.93;;;;;;;-2.63;69.15;95455.13;5039911;28;20025;-83
2022/03/02 04:20:38;;;;;;;23.40;10.15;;;;;;;-3.06;70.35;95392.00;5058823;28;20060;-83
2022/03/02 04:23:04;;;;;;;22.48;10.43;;;;;;;-1.92;69.60;95545.13;5059395;28;20036;-83
2022/03/02 04:25:30;;;;;;;19.75;10.63;;;;;;;-1.78;69.33;95536.44;5058637;28;20033;-82
2022/03/02 04:27:56;;;;;;;18.67;10.65;;;;;;;-1.99;70.06;95528.66;5058925;28;20047;-82
2022/03/02 04:30:22;;;;;;;21.02;10.80;;;;;;;-2.44;70.24;95460.47;5060367;28;20557;-84
2022/03/02 04:32:47;;;;;;;19.48;11.18;;;;;;;-2.27;69.44;95494.00;5060435;28;20033;-83
2022/03/02 04:35:13;;;;;;;23.08;11.07;;;;;;;-2.35;69.02;95463.75;5042444;28;20029;-83
2022/03/02 04:37:40;;;;;;;20.88;10.75;;;;;;;-1.91;69.03;95540.72;5058470;28;20060;-83
2022/03/02 04:40:07;;;;;;;25.35;11.65;;;;;;;-3.13;70.33;95366.00;5041793;28;20025;-83
2022/03/02 04:42:34;;;;;;;24.83;11.02;;;;;;;-2.64;69.45;95420.56;5042987;28;20115;-83
2022/03/02 04:44:59;;;;;;;30.80;11.75;;;;;;;-3.72;69.75;95267.63;5059281;28;20020;-82
2022/03/02 04:47:42;;;;;;;21.88;11.06;;;;;;;-1.93;70.08;95540.09;4462277;28;10001593;-82
2022/03/02 04:50:08;;;;;;;25.33;12.43;;;;;;;-2.96;70.02;95389.91;1394388;28;10001993;-82
2022/03/02 04:52:34;;;;;;;22.15;12.98;;;;;;;-2.04;70.42;95531.00;5042679;28;20295;-82
2022/03/02 04:55:05;;;;;;;26.38;13.85;;;;;;;-2.29;70.67;95468.25;5042574;28;20097;-82
2022/03/02 04:57:31;;;;;;;26.20;13.23;;;;;;;-1.90;70.52;95531.91;5061034;28;20060;-82
2022/03/02 04:59:57;;;;;;;25.58;12.88;;;;;;;-2.36;70.63;95459.56;5060789;28;20036;-83
2022/03/02 05:02:25;;;;;;;29.20;14.38;;;;;;;-2.86;71.25;95361.84;5060955;28;20063;-83
2022/03/02 05:04:51;;;;;;;28.67;13.95;;;;;;;-2.37;71.25;95417.22;5038070;28;20115;-82
2022/03/02 05:07:16;;;;;;;28.50;14.55;;;;;;;-2.82;71.03;95378.66;5022663;28;20067;-82
2022/03/02 05:09:43;;;;;;;29.08;12.90;;;;;;;-2.88;70.24;95320.50;5038496;28;20034;-83
2022/03/02 05:12:09;;;;;;;25.75;13.65;;;;;;;-2.35;70.61;95428.19;5020210;28;20037;-82
2022/03/02 05:14:34;;;;;;;31.10;13.25;;;;;;;-2.28;70.74;95419.66;5037954;28;20086;-83
2022/03/02 05:17:00;;;;;;;39.83;14.82;;;;;;;-2.48;70.31;95386.53;5037436;28;20060;-82
2022/03/02 05:19:25;;;;;;;24.85;12.70;;;;;;;-1.43;70.06;95526.06;5037111;28;20037;-82
2022/03/02 05:21:53;;;;;;;34.72;15.30;;;;;;;-1.46;70.79;95529.84;5018881;28;20467;-82
2022/03/02 05:24:19;;;;;;;20.52;12.05;;;;;;;-1.83;70.72;95489.38;5052705;28;20538;-83
2022/03/02 05:26:44;;;;;;;28.38;12.45;;;;;;;-1.97;72.18;95478.06;5036385;28;20025;-82
2022/03/02 05:29:10;;;;;;;33.17;15.45;;;;;;;-2.19;71.78;95411.53;5035079;28;20038;-82
2022/03/02 05:31:36;;;;;;;28.27;12.98;;;;;;;-3.12;71.78;95258.63;5033778;28;20068;-82
2022/03/02 05:34:01;;;;;;;27.98;13.45;;;;;;;-3.17;71.03;95264.38;5034962;28;20065;-82
2022/03/02 05:36:27;;;;;;;28.55;13.13;;;;;;;-1.76;72.00;95525.84;5037097;28;20095;-82
2022/03/02 05:38:54;;;;;;;23.52;12.35;;;;;;;-1.73;71.67;95479.44;5019523;28;20025;-82
2022/03/02 05:41:20;;;;;;;24.63;13.05;;;;;;;-2.29;71.64;95405.09;5038000;28;20041;-82
2022/03/02 05:43:46;;;;;;;30.42;14.23;;;;;;;-1.59;72.47;95543.56;5039084;28;20128;-83
2022/03/02 05:46:12;;;;;;;42.03;16.17;;;;;;;-1.91;72.85;95473.13;5021451;28;20122;-83
2022/03/02 05:48:37;;;;;;;27.27;14.63;;;;;;;-1.95;73.17;95470.09;5036566;28;20029;-83
2022/03/02 05:51:03;;;;;;;32.90;14.98;;;;;;;-2.48;73.84;95414.31;5019378;28;20033;-83
2022/03/02 05:53:29;;;;;;;31.10;14.75;;;;;;;-2.84;73.92;95373.66;5037459;28;20036;-82
2022/03/02 05:55:55;;;;;;;28.08;15.30;;;;;;;-5.33;74.54;94984.06;5018055;28;20029;-82
2022/03/02 05:58:20;;;;;;;31.58;15.32;;;;;;;-2.37;74.73;95432.00;5019978;28;20303;-84
2022/03/02 06:00:46;;;;;;;31.42;16.08;;;;;;;-7.18;74.82;94693.59;5052980;28;20029;-84
2022/03/02 06:03:11;;;;;;;32.67;16.38;;;;;;;-5.08;74.40;95018.97;5039530;28;20053;-85
2022/03/02 06:05:37;;;;;;;29.60;15.35;;;;;;;-3.61;74.62;95263.75;5036221;28;20052;-84
2022/03/02 06:08:03;;;;;;;29.80;14.57;;;;;;;-1.77;74.93;95590.03;5020418;28;20545;-84
2022/03/02 06:10:29;;;;;;;25.80;14.70;;;;;;;-2.74;74.23;95386.31;5021056;28;20045;-84
2022/03/02 06:12:54;;;;;;;31.25;15.85;;;;;;;-4.76;73.87;95085.00;5036903;28;20384;-84
2022/03/02 06:15:20;;;;;;;34.03;15.00;;;;;;;-3.30;74.69;95276.44;5021526;28;20122;-84
2022/03/02 06:17:46;;;;;;;31.23;16.15;;;;;;;-4.34;74.29;95092.03;5039991;28;20026;-83
2022/03/02 06:20:12;;;;;;;34.50;17.15;;;;;;;-1.42;74.85;95545.88;5021325;28;20499;-84
2022/03/02 06:22:37;;;;;;;34.38;15.43;;;;;;;-1.35;74.65;95544.94;5038088;28;20033;-84
2022/03/02 06:25:07;;;;;;;33.97;16.58;;;;;;;-1.40;74.49;95544.69;5051987;28;20179;-84
2022/03/02 06:27:34;;;;;;;32.20;14.40;;;;;;;-1.39;74.26;95533.31;5016628;28;20506;-83
2022/03/02 06:29:59;;;;;;;36.85;15.90;;;;;;;-2.39;74.98;95392.41;5051543;28;20526;-83
2022/03/02 06:32:24;;;;;;;33.28;16.48;;;;;;;-1.86;74.97;95455.16;5018297;28;20112;-83
2022/03/02 06:34:50;;;;;;;30.83;16.02;;;;;;;-2.40;74.52;95373.44;5019052;28;20133;-83
2022/03/02 06:37:16;;;;;;;33.40;15.55;;;;;;;-2.06;74.06;95416.06;5034645;28;20042;-83
2022/03/02 06:39:42;;;;;;;37.72;15.13;;;;;;;-1.32;74.01;95518.53;5018511;28;20041;-83
2022/03/02 06:42:21;;;;;;;28.42;15.93;;;;;;;-1.98;74.77;95387.28;5021056;28;20035;-83
2022/03/02 06:44:55;;;;;;;33.13;16.77;;;;;;;-1.07;74.07;95521.47;5054669;28;20033;-83
2022/03/02 06:47:31;;;;;;;30.58;16.42;;;;;;;-2.20;73.55;95360.56;5037724;28;20119;-83
2022/03/02 06:49:56;;;;;;;34.45;16.75;;;;;;;-1.01;73.34;95523.31;5020030;28;20037;-83
2022/03/02 06:52:31;;;;;;;29.80;15.50;;;;;;;-1.97;73.24;95378.50;5035926;28;20052;-83
2022/03/02 06:55:02;;;;;;;42.50;18.60;;;;;;;-1.47;73.75;95462.41;5035921;28;20091;-83
2022/03/02 06:57:28;;;;;;;36.05;18.25;;;;;;;-1.47;73.53;95454.59;5035768;28;20033;-82
2022/03/02 07:00:06;;;;;;;35.40;18.80;;;;;;;-1.99;72.16;95351.94;5038113;28;20032;-83
2022/03/02 07:02:45;;;;;;;40.63;18.58;;;;;;;-2.10;73.10;95348.06;5019507;28;20509;-83
2022/03/02 07:05:11;;;;;;;30.73;17.45;;;;;;;-1.05;72.97;95521.25;5017544;28;20420;-83
2022/03/02 07:07:37;;;;;;;31.88;16.90;;;;;;;-1.12;73.31;95510.81;5037963;28;20080;-83
2022/03/02 07:10:05;;;;;;;38.67;17.98;;;;;;;-1.99;73.89;95363.13;5036791;28;20041;-83
2022/03/02 07:12:33;;;;;;;27.63;14.95;;;;;;;-0.96;72.96;95518.31;5019557;28;20459;-83
2022/03/02 07:14:58;;;;;;;38.95;17.63;;;;;;;-0.92;73.13;95510.94;5053012;28;20470;-83
2022/03/02 07:17:32;;;;;;;36.17;17.60;;;;;;;-1.31;73.36;95452.50;5023278;28;20054;-82
2022/03/02 07:19:58;;;;;;;36.47;17.92;;;;;;;-1.44;73.55;95452.41;5037698;28;20041;-82
2022/03/02 07:22:30;;;;;;;36.13;18.90;;;;;;;-1.33;72.61;95444.06;5037224;28;20091;-82
2022/03/02 07:25:03;;;;;;;30.33;16.55;;;;;;;-2.65;72.99;95221.63;5037259;28;20041;-82
2022/03/02 07:27:29;;;;;;;36.50;17.05;;;;;;;-0.85;72.91;95502.16;5019349;28;20039;-83
2022/03/02 07:29:55;;;;;;;35.45;17.67;;;;;;;-1.40;72.49;95399.00;5018824;28;20037;-83
2022/03/02 07:32:31;;;;;;;44.42;18.05;;;;;;;-0.86;72.26;95477.09;5035857;28;20045;-82
2022/03/02 07:35:01;;;;;;;34.63;17.65;;;;;;;-1.73;71.60;95346.84;5018350;28;20096;-82
2022/03/02 07:37:28;;;;;;;41.95;19.25;;;;;;;-0.70;72.31;95495.97;5019874;28;20043;-83
2022/03/02 07:39:55;;;;;;;33.95;18.10;;;;;;;-0.57;71.57;95499.44;5050842;28;20056;-82
2022/03/02 07:42:21;;;;;;;32.65;17.98;;;;;;;-0.54;72.27;95491.22;5036162;28;20033;-83
2022/03/02 07:44:47;;;;;;;42.65;19.33;;;;;;;-0.52;71.86;95493.63;5035161;28;20045;-83
2022/03/02 07:47:14;;;;;;;35.70;17.55;;;;;;;-1.50;72.07;95332.72;5033094;28;20060;-82
2022/03/02 07:49:39;;;;;;;36.08;19.35;;;;;;;-0.44;71.71;95481.22;5017583;28;20033;-82
2022/03/02 07:52:05;;;;;;;36.67;19.67;;;;;;;-0.42;71.13;95492.25;5017584;28;20034;-82
2022/03/02 07:54:35;;;;;;;37.65;18.83;;;;;;;-1.22;71.57;95367.25;5036723;28;20399;-82
2022/03/02 07:57:01;;;;;;;37.13;19.13;;;;;;;-0.88;71.66;95421.00;5018592;28;20039;-82
2022/03/02 07:59:33;;;;;;;40.08;19.40;;;;;;;-1.05;71.62;95388.50;5017968;28;20127;-82
2022/03/02 08:01:59;;;;;;;35.78;18.65;;;;;;;-0.95;72.23;95405.38;5037240;28;20037;-82
2022/03/02 08:04:27;;;;;;;37.58;21.33;;;;;;;-1.07;71.77;95380.13;5037564;28;20061;-82
2022/03/02 08:06:53;;;;;;;41.45;19.80;;;;;;;-0.73;72.73;95432.06;5036928;28;20487;-83
2022/03/02 08:09:18;;;;;;;36.13;18.90;;;;;;;-1.31;72.32;95353.63;5036162;28;20042;-82
2022/03/02 08:11:44;;;;;;;46.92;20.35;;;;;;;-1.33;72.37;95349.59;5036825;28;20037;-83
2022/03/02 08:14:09;;;;;;;43.78;21.58;;;;;;;-0.79;73.13;95435.47;5020180;28;20048;-82
2022/03/02 08:16:35;;;;;;;50.15;22.02;;;;;;;-0.63;72.73;95435.09;5036326;28;20068;-82
2022/03/02 08:19:02;;;;;;;40.63;20.15;;;;;;;-0.38;71.83;95474.41;5033563;28;20037;-83
2022/03/02 08:21:33;;;;;;;40.97;19.90;;;;;;;-1.27;73.05;95346.22;5016606;28;20473;-83
2022/03/02 08:24:03;;;;;;;68.28;23.20;;;;;;;-0.65;72.62;95434.47;5016335;28;20164;-83
2022/03/02 08:26:32;;;;;;;40.50;18.55;;;;;;;-1.05;71.63;95365.88;5015665;28;20049;-83
2022/03/02 08:29:01;;;;;;;42.75;21.50;;;;;;;-1.32;71.63;95313.00;5017556;28;20044;-83
2022/03/02 08:31:27;;;;;;;43.35;21.58;;;;;;;-1.49;72.61;95287.53;5036094;28;20037;-83
2022/03/02 08:33:56;;;;;;;56.03;22.98;;;;;;;-1.27;71.29;95281.16;5041470;28;20059;-83
2022/03/02 08:36:33;;;;;;;54.30;21.55;;;;;;;-0.95;71.42;95358.50;5055109;28;20423;-83
2022/03/02 08:39:09;;;;;;;44.42;20.00;;;;;;;-0.07;70.96;95461.59;5021449;28;20518;-84
2022/03/02 08:41:35;;;;;;;45.63;20.33;;;;;;;-1.33;70.59;95307.97;5042716;28;20072;-84
2022/03/02 08:44:01;;;;;;;46.50;22.27;;;;;;;-0.91;71.87;95345.88;5029815;28;20096;-82
2022/03/02 08:46:27;;;;;;;51.00;22.88;;;;;;;-0.01;71.55;95449.59;5031379;28;20048;-83
2022/03/02 08:48:54;;;;;;;51.53;22.88;;;;;;;-0.04;71.47;95432.53;5050987;28;20037;-82
2022/03/02 08:51:22;;;;;;;41.03;20.65;;;;;;;-1.93;69.01;95151.00;5051807;28;20063;-80
2022/03/02 08:53:53;;;;;;;46.38;22.08;;;;;;;-2.02;70.59;95100.22;5039977;28;20470;-82
2022/03/02 08:56:20;;;;;;;;;;;;;;;0.20;69.77;95446.75;5044411;28;20041;-82
2022/03/02 08:58:49;;;;;;;44.40;21.48;;;;;;;-1.73;69.92;95203.84;5043762;28;19928;-84
2022/03/02 09:01:15;;;;;;;42.70;22.27;;;;;;;-2.38;69.70;95097.94;5034794;28;20171;-83
2022/03/02 09:03:48;;;;;;;41.10;22.00;;;;;;;-0.41;69.54;95342.72;5035525;28;20088;-83
2022/03/02 09:06:18;;;;;;;48.05;23.00;;;;;;;-0.16;69.41;95358.56;5035157;28;20037;-83
2022/03/02 09:08:44;;;;;;;51.88;23.70;;;;;;;-4.09;70.05;94729.09;5036790;28;20045;-83
2022/03/02 09:11:09;;;;;;;47.38;22.45;;;;;;;-0.63;69.45;95320.50;5017006;28;20041;-82
2022/03/02 09:13:38;;;;;;;48.28;23.95;;;;;;;-0.70;69.28;95269.41;5032912;28;20038;-83
2022/03/02 09:16:05;;;;;;;53.17;24.83;;;;;;;0.45;68.78;95427.84;5035389;28;20492;-83
2022/03/02 09:18:32;;;;;;;57.58;23.65;;;;;;;0.33;69.04;95380.72;5016588;28;20098;-83
2022/03/02 09:21:06;;;;;;;46.58;23.70;;;;;;;0.18;67.98;95348.84;5040815;28;20044;-86
2022/03/02 09:23:43;;;;;;;49.00;23.38;;;;;;;0.78;67.92;95450.22;5030980;28;20056;-84
2022/03/02 09:26:14;;;;;;;47.53;23.13;;;;;;;-0.24;66.52;95262.31;5054001;28;20042;-83
2022/03/02 09:28:50;;;;;;;43.47;21.58;;;;;;;0.16;67.06;95285.66;5038091;28;20045;-83
2022/03/02 09:31:19;;;;;;;48.28;22.30;;;;;;;-0.55;66.34;95173.59;5040816;28;20040;-83
2022/03/02 09:33:55;;;;;;;43.20;21.15;;;;;;;1.07;66.97;95414.16;5035116;28;20029;-83
2022/03/02 09:36:23;;;;;;;41.90;20.42;;;;;;;0.52;66.14;95301.56;5049868;28;20052;-84
2022/03/02 09:38:50;;;;;;;38.53;19.88;;;;;;;0.54;64.82;95317.00;5017923;28;20076;-82
2022/03/02 09:41:33;;;;;;;48.40;21.73;;;;;;;0.92;64.87;95371.84;5050485;28;20033;-82
2022/03/02 09:44:00;;;;;;;49.42;21.35;;;;;;;0.88;64.64;95341.94;5017558;28;20136;-82
2022/03/02 09:46:37;;;;;;;39.40;20.20;;;;;;;0.75;64.45;95332.38;5036597;28;20037;-82
2022/03/02 09:49:08;;;;;;;40.72;21.65;;;;;;;0.18;65.05;95253.16;5051632;28;20034;-83
2022/03/02 09:51:35;;;;;;;47.30;21.25;;;;;;;0.80;65.46;95327.34;5021001;28;20033;-83
2022/03/02 09:54:04;;;;;;;43.22;20.92;;;;;;;0.68;64.56;95319.38;5037155;28;20037;-82
2022/03/02 09:56:35;;;;;;;40.80;19.98;;;;;;;0.66;63.50;95344.88;5052000;28;20064;-83
2022/03/02 09:59:04;;;;;;;37.37;20.20;;;;;;;0.85;63.34;95347.56;5050634;28;20038;-84
2022/03/02 10:01:31;;;;;;;45.03;21.55;;;;;;;0.30;62.87;95267.16;5035499;28;20294;-84
2022/03/02 10:04:06;;;;;;;46.90;20.55;;;;;;;0.57;63.59;95303.56;5023043;28;20077;-85
2022/03/02 10:06:33;;;;;;;39.63;19.13;;;;;;;1.20;62.85;95393.22;5016362;28;20045;-84
2022/03/02 10:09:01;;;;;;;38.13;19.52;;;;;;;-0.84;62.10;95016.81;5014961;28;20135;-83
2022/03/02 10:11:27;;;;;;;34.17;17.70;;;;;;;0.52;62.03;95277.28;5036575;28;20100;-84
2022/03/02 10:13:57;;;;;;;39.13;18.15;;;;;;;0.20;61.93;95201.59;5035716;28;20029;-84
2022/03/02 10:16:27;;;;;;;52.65;21.63;;;;;;;1.34;62.95;95274.53;5020856;28;20044;-84
2022/03/02 10:19:02;;;;;;;35.00;17.92;;;;;;;1.89;60.05;95321.72;5025707;28;20125;-85
2022/03/02 10:21:38;;;;;;;42.53;20.70;;;;;;;-0.10;58.96;94914.56;5040029;28;20089;-85
2022/03/02 10:24:04;;;;;;;38.72;18.52;;;;;;;-0.10;57.64;94922.41;5039289;28;20025;-83
2022/03/02 10:26:32;;;;;;;38.63;19.00;;;;;;;3.13;58.13;95326.47;5040014;28;20116;-83
2022/03/02 10:29:20;;;;;;;34.28;15.48;;;;;;;2.64;55.21;95241.13;5020405;28;20037;-84
2022/03/02 10:31:48;;;;;;;30.02;16.70;;;;;;;3.70;54.92;95351.25;5021250;28;20440;-83
2022/03/02 10:34:29;;;;;;;31.17;17.00;;;;;;;3.19;53.54;95254.84;5036554;28;20440;-84
2022/03/02 10:37:16;;;;;;;29.43;14.70;;;;;;;3.72;53.92;95338.72;5021507;28;20499;-84
2022/03/02 10:39:56;;;;;;;22.15;11.93;;;;;;;3.56;51.09;95334.13;5036635;28;20284;-85
2022/03/02 10:42:30;;;;;;;24.88;12.52;;;;;;;2.97;53.15;95293.06;5020238;28;20041;-84
2022/03/02 10:45:08;;;;;;;28.65;13.70;;;;;;;3.27;54.00;95330.53;5020490;28;20511;-84
2022/03/02 10:47:56;;;;;;;30.15;16.63;;;;;;;3.98;58.24;95318.28;5039583;28;20037;-85
2022/03/02 10:50:26;;;;;;;37.35;17.92;;;;;;;4.13;55.28;95318.63;4990876;28;20466;-82
2022/03/02 10:52:54;;;;;;;33.15;17.60;;;;;;;3.77;57.88;95220.78;5039984;28;20411;-84
2022/03/02 10:55:23;;;;;;;29.45;16.30;;;;;;;4.25;53.75;95308.91;5020616;28;20465;-83
2022/03/02 10:57:52;;;;;;;29.10;17.00;;;;;;;3.15;57.18;95182.94;5038269;28;20037;-83
2022/03/02 11:00:20;;;;;;;34.35;16.80;;;;;;;3.13;54.64;95200.69;5021267;28;20056;-82
2022/03/02 11:02:48;;;;;;;39.92;17.50;;;;;;;3.64;55.96;95283.97;5021829;28;20037;-83
2022/03/02 11:05:19;;;;;;;27.13;15.63;;;;;;;3.14;53.68;95254.69;5040996;28;20055;-82
2022/03/02 11:07:46;;;;;;;29.57;14.87;;;;;;;3.13;54.33;95232.13;5039239;28;20037;-84
2022/03/02 11:10:15;;;;;;;30.58;15.98;;;;;;;3.58;53.77;95281.44;5036915;28;20036;-82
2022/03/02 11:12:45;;;;;;;30.88;15.35;;;;;;;3.34;55.02;95209.84;5052361;28;20380;-82
2022/03/02 11:15:12;;;;;;;32.80;16.65;;;;;;;3.66;56.90;95239.91;5057145;28;20040;-84
2022/03/02 11:17:50;;;;;;;27.13;14.77;;;;;;;3.73;52.28;95272.09;5052729;28;20096;-83
2022/03/02 11:20:15;;;;;;;25.70;12.50;;;;;;;3.60;51.02;95258.41;5062967;28;20044;-83
2022/03/02 11:22:51;;;;;;;28.73;15.75;;;;;;;3.96;55.27;95260.81;5058686;28;20052;-83